Startpagina
METAR-TAF:

METAR-TAF

Vliegvelden :

Dar es Salaam, Tanzania

Julius Nyerere International Airport

breedte: 06-52S, lengte: 039-12E, hoogte: 55 m

Actueel weer

Dit bericht is 2 uur en het 21 minuten geleden gemaakt, om 17:00 UTC
Wind 8 kt uit het oostzuidoosten
Temperatuur 27°C
Vochtigheid 70%
Druk 1015 hPa
Zicht 10 km of meer
Weinig wolken op 1900 ft

METAR: HTDA 211700Z 11008KT 9999 FEW019 27/21 Q1015 NOSIG

Tijdstip: 22:21 (19:21 UTC)

Verwachting

Dit bericht is 2 uur en het 21 minuten geleden gemaakt, om 17:00 UTC
Verwachting geldig van 21 om 18 UTC tot 22 om 24 UTC
Wind 10 kt uit het zuidoosten
Zicht 10 km of meer
Verspreide wolken op 1800 ft
Wijzigt naar
van 21 om 21 UTC tot 22 om 00 UTC
Wind kt uit het noorden
Wijzigt naar
van 22 om 08 UTC tot 22 om 11 UTC
Wind 10 kt uit het zuidzuidoosten
Gebroken wolken op 2900 ft

TAF: HTDA 211700Z 2118/2224 13010KT 9999 SCT018 BECMG 2121/2200 00000KT BECMG 2208/2211 16010KT BKN029

Waarnemingen en weersverwachtingen van meer dan 4000 vliegvelden (METAR en TAF).

De beschikbare stations zijn de gele en rode punten op de kaart.

Ga met uw muis naar het station om de naam te zien.

Klik dan om waarnemingen en weersverwachtingen te zien.

kaart wijzigen: klik op de groene knoppen met een zwart kruis om in te zoomen, op de groene knop met een streepje om uit te zoomen of op de groene pijlen voor aangrenzende kaarten.


METAR-TAF: